Time;durP1;ratioP1;P1;durP2;ratioP2;P2;SDS_P1;SDS_P2;PMS_P1;PMS_P2;Temp;Humidity;BMP_temperature;BMP_pressure;BME280_temperature;BME280_humidity;BME280_pressure;Samples;Min_cycle;Max_cycle;Signal;HPM_P1;HPM_P2
2020/12/29 00:00:55;;;;;;;0.77;0.73;;;3.70;99.90;;;;;;5031013;28;20553;-68
2020/12/29 00:03:20;;;;;;;0.50;0.50;;;3.70;99.90;;;;;;5030424;28;20025;-68
2020/12/29 00:05:47;;;;;;;0.32;0.32;;;3.80;99.90;;;;;;5030007;28;20063;-68
2020/12/29 00:08:13;;;;;;;1.00;0.50;;;3.80;99.90;;;;;;5029882;28;20029;-68
2020/12/29 00:10:39;;;;;;;0.45;0.38;;;3.90;99.90;;;;;;5030518;28;20034;-69
2020/12/29 00:13:06;;;;;;;0.30;0.30;;;4.00;99.90;;;;;;5030328;28;20641;-68
2020/12/29 00:15:32;;;;;;;0.40;0.30;;;4.10;99.90;;;;;;5031003;28;20022;-70
2020/12/29 00:17:57;;;;;;;0.40;0.35;;;4.20;99.90;;;;;;5030851;28;20091;-68
2020/12/29 00:20:23;;;;;;;2.10;0.35;;;4.30;99.90;;;;;;5030939;28;20018;-68
2020/12/29 00:22:49;;;;;;;0.73;0.30;;;4.40;99.90;;;;;;5030302;28;20500;-68
2020/12/29 00:25:23;;;;;;;1.75;0.50;;;4.30;99.90;;;;;;5030629;28;20071;-68
2020/12/29 00:27:49;;;;;;;0.30;0.30;;;4.30;99.90;;;;;;5031019;28;20053;-68
2020/12/29 00:30:14;;;;;;;0.20;0.20;;;4.30;99.90;;;;;;5031115;28;20488;-68
2020/12/29 00:32:40;;;;;;;0.30;0.30;;;4.40;99.90;;;;;;5030548;28;20021;-68
2020/12/29 00:35:06;;;;;;;0.40;0.30;;;4.40;99.90;;;;;;5031265;28;20049;-68
2020/12/29 00:37:32;;;;;;;0.43;0.25;;;4.40;99.90;;;;;;5031469;28;20048;-69
2020/12/29 00:39:58;;;;;;;0.52;0.30;;;4.50;99.90;;;;;;5031291;28;20037;-68
2020/12/29 00:42:23;;;;;;;0.38;0.38;;;4.50;99.90;;;;;;5031790;28;20080;-68
2020/12/29 00:44:49;;;;;;;0.43;0.43;;;4.50;99.90;;;;;;5031705;28;20033;-67
2020/12/29 00:47:17;;;;;;;0.30;0.30;;;4.50;99.90;;;;;;5013595;28;20032;-67
2020/12/29 00:49:42;;;;;;;0.30;0.30;;;4.50;99.90;;;;;;5011977;28;20026;-67
2020/12/29 00:52:08;;;;;;;0.50;0.50;;;4.50;99.90;;;;;;5012997;28;20093;-67
2020/12/29 00:54:34;;;;;;;0.30;0.30;;;4.50;99.90;;;;;;5017252;28;20022;-67
2020/12/29 00:56:59;;;;;;;0.40;0.40;;;4.40;99.90;;;;;;5017080;28;20484;-67
2020/12/29 00:59:25;;;;;;;0.50;0.35;;;4.30;99.90;;;;;;5016769;28;20400;-67
2020/12/29 01:01:55;;;;;;;0.60;0.60;;;4.40;99.90;;;;;;5015829;28;20480;-67
2020/12/29 01:04:21;;;;;;;0.30;0.30;;;4.20;99.90;;;;;;5025306;28;20495;-67
2020/12/29 01:06:48;;;;;;;0.50;0.40;;;4.20;99.90;;;;;;5035431;28;20415;-67
2020/12/29 01:09:14;;;;;;;0.95;0.70;;;4.10;99.90;;;;;;5035945;28;20088;-67
2020/12/29 01:11:39;;;;;;;1.27;0.40;;;4.10;99.90;;;;;;5037849;28;20488;-68
2020/12/29 01:14:05;;;;;;;0.50;0.50;;;4.00;99.90;;;;;;5046346;28;20013;-68
2020/12/29 01:16:30;;;;;;;0.50;0.45;;;3.90;99.90;;;;;;5040469;28;20041;-68
2020/12/29 01:18:56;;;;;;;0.40;0.40;;;4.00;99.90;;;;;;5033486;28;20037;-67
2020/12/29 01:21:22;;;;;;;0.40;0.40;;;4.10;99.90;;;;;;5033807;28;20021;-67
2020/12/29 01:23:47;;;;;;;0.30;0.30;;;4.00;99.90;;;;;;5033125;28;20106;-67
2020/12/29 01:26:24;;;;;;;0.50;0.50;;;4.00;99.90;;;;;;5033435;28;20033;-67
2020/12/29 01:28:50;;;;;;;0.50;0.50;;;4.00;99.90;;;;;;5033657;28;20048;-67
2020/12/29 01:31:24;;;;;;;0.60;0.60;;;4.20;99.90;;;;;;5033625;28;20542;-67
2020/12/29 01:33:49;;;;;;;0.98;0.47;;;4.20;99.90;;;;;;5032878;28;20034;-67
2020/12/29 01:36:15;;;;;;;0.82;0.50;;;4.20;99.90;;;;;;5032634;28;20025;-67
2020/12/29 01:38:41;;;;;;;1.40;0.30;;;4.20;99.90;;;;;;5033517;28;20376;-68
2020/12/29 01:41:07;;;;;;;0.40;0.40;;;4.40;99.90;;;;;;5033312;28;20083;-67
2020/12/29 01:43:32;;;;;;;0.28;0.28;;;4.50;99.90;;;;;;5031274;28;20033;-68
2020/12/29 01:45:58;;;;;;;0.40;0.40;;;4.60;99.90;;;;;;5033322;28;20029;-68
2020/12/29 01:48:27;;;;;;;0.30;0.30;;;4.50;99.90;;;;;;5031319;28;20021;-67
2020/12/29 01:50:53;;;;;;;0.30;0.30;;;4.40;99.90;;;;;;5033209;28;20022;-68
2020/12/29 01:53:18;;;;;;;0.30;0.30;;;4.30;99.90;;;;;;5032483;28;20104;-67
2020/12/29 01:55:44;;;;;;;0.40;0.20;;;4.30;99.90;;;;;;5031722;28;20117;-67
2020/12/29 01:58:10;;;;;;;4.70;0.30;;;4.50;99.90;;;;;;5032997;28;20132;-68
2020/12/29 02:00:36;;;;;;;0.20;0.20;;;4.50;99.90;;;;;;5030754;28;20075;-69
2020/12/29 02:03:03;;;;;;;0.20;0.20;;;4.60;99.90;;;;;;5032443;28;20037;-69
2020/12/29 02:05:30;;;;;;;0.20;0.20;;;4.60;99.90;;;;;;5031078;28;20454;-69
2020/12/29 02:07:57;;;;;;;0.47;0.20;;;4.70;99.90;;;;;;5032142;28;20036;-68
2020/12/29 02:10:23;;;;;;;0.50;0.50;;;4.70;99.90;;;;;;5032375;28;20109;-68
2020/12/29 02:12:48;;;;;;;0.20;0.20;;;4.70;99.90;;;;;;5031986;28;20108;-67
2020/12/29 02:15:14;;;;;;;0.10;0.10;;;4.80;99.90;;;;;;5032306;28;20021;-67
2020/12/29 02:17:40;;;;;;;0.30;0.30;;;4.80;99.90;;;;;;5032822;28;20033;-67
2020/12/29 02:20:06;;;;;;;0.30;0.30;;;4.70;99.90;;;;;;5032555;28;20029;-68
2020/12/29 02:22:32;;;;;;;0.25;0.20;;;4.70;99.90;;;;;;5031418;28;20045;-67
2020/12/29 02:25:04;;;;;;;0.30;0.30;;;4.70;99.90;;;;;;5031710;28;20447;-68
2020/12/29 02:27:31;;;;;;;0.20;0.20;;;4.80;99.90;;;;;;5032658;28;20108;-68
2020/12/29 02:29:58;;;;;;;0.20;0.20;;;4.70;99.90;;;;;;5031537;28;20267;-68
2020/12/29 02:32:24;;;;;;;0.73;0.20;;;4.70;99.90;;;;;;5032450;28;20077;-68
2020/12/29 02:34:50;;;;;;;0.20;0.20;;;4.70;99.90;;;;;;5031730;28;20041;-69
2020/12/29 02:37:16;;;;;;;0.20;0.20;;;4.70;99.90;;;;;;5032399;28;20030;-68
2020/12/29 02:39:44;;;;;;;0.17;0.15;;;4.70;99.90;;;;;;5032111;28;20036;-68
2020/12/29 02:42:10;;;;;;;0.40;0.20;;;4.70;99.90;;;;;;5032272;28;20483;-69
2020/12/29 02:44:37;;;;;;;0.45;0.30;;;4.70;99.90;;;;;;5031223;28;20479;-69
2020/12/29 02:47:03;;;;;;;1.85;0.20;;;4.70;99.90;;;;;;5032118;28;20021;-68
2020/12/29 02:49:31;;;;;;;0.65;0.60;;;4.60;99.90;;;;;;5032083;28;20033;-68
2020/12/29 02:51:57;;;;;;;0.32;0.30;;;4.40;99.90;;;;;;5032149;28;20029;-68
2020/12/29 02:54:24;;;;;;;0.30;0.30;;;4.40;99.90;;;;;;5031203;28;20024;-68
2020/12/29 02:56:50;;;;;;;1.00;0.20;;;4.40;99.90;;;;;;5031966;28;20490;-69
2020/12/29 02:59:15;;;;;;;1.30;0.30;;;4.40;99.90;;;;;;5031637;28;20120;-69
2020/12/29 03:01:41;;;;;;;1.00;0.35;;;4.40;99.90;;;;;;5031280;28;20053;-69
2020/12/29 03:04:06;;;;;;;1.63;0.20;;;4.30;99.90;;;;;;5031462;28;20021;-69
2020/12/29 03:06:32;;;;;;;0.70;0.40;;;4.30;99.90;;;;;;5030531;28;20032;-69
2020/12/29 03:08:58;;;;;;;0.65;0.30;;;4.30;99.90;;;;;;5031715;28;20025;-69
2020/12/29 03:11:28;;;;;;;0.40;0.40;;;4.20;99.90;;;;;;5031614;28;20056;-69
2020/12/29 03:13:55;;;;;;;0.70;0.35;;;4.20;99.90;;;;;;5031292;28;20014;-69
2020/12/29 03:16:21;;;;;;;1.33;0.40;;;4.10;99.90;;;;;;5031204;28;20030;-69
2020/12/29 03:18:47;;;;;;;1.08;0.70;;;4.10;99.90;;;;;;5031704;28;20067;-68
2020/12/29 03:21:13;;;;;;;0.55;0.30;;;4.10;99.90;;;;;;5031597;28;20056;-69
2020/12/29 03:23:38;;;;;;;0.30;0.30;;;4.20;99.90;;;;;;5031066;28;20040;-68
2020/12/29 03:26:04;;;;;;;0.95;0.30;;;4.20;99.90;;;;;;5031632;28;20298;-69
2020/12/29 03:28:30;;;;;;;0.68;0.40;;;4.10;99.90;;;;;;5031030;28;20079;-68
2020/12/29 03:30:55;;;;;;;0.80;0.45;;;4.10;99.90;;;;;;5031317;28;20365;-69
2020/12/29 03:33:21;;;;;;;0.30;0.30;;;4.30;99.90;;;;;;5031038;28;20480;-69
2020/12/29 03:35:47;;;;;;;3.35;0.40;;;4.30;99.90;;;;;;5031541;28;20395;-69
2020/12/29 03:38:12;;;;;;;0.45;0.32;;;4.30;99.90;;;;;;5030721;28;20532;-68
2020/12/29 03:40:38;;;;;;;2.15;0.30;;;4.40;99.90;;;;;;5031562;28;20128;-68
2020/12/29 03:43:04;;;;;;;0.22;0.22;;;4.50;99.90;;;;;;5030943;28;20030;-68
2020/12/29 03:45:29;;;;;;;1.85;0.30;;;4.30;99.90;;;;;;5031485;28;20107;-68
2020/12/29 03:47:55;;;;;;;0.38;0.35;;;4.30;99.90;;;;;;5030544;28;20438;-68
2020/12/29 03:50:21;;;;;;;0.38;0.30;;;4.40;99.90;;;;;;5031413;28;20017;-68
2020/12/29 03:52:46;;;;;;;1.17;0.43;;;4.30;99.90;;;;;;5029568;28;20375;-68
2020/12/29 03:55:13;;;;;;;0.35;0.30;;;4.30;99.90;;;;;;5031226;28;20400;-68
2020/12/29 03:57:38;;;;;;;1.02;0.40;;;4.30;99.90;;;;;;5031568;28;20057;-68
2020/12/29 04:00:06;;;;;;;0.55;0.25;;;4.20;99.90;;;;;;5030965;28;20429;-69
2020/12/29 04:02:32;;;;;;;0.73;0.40;;;4.20;99.90;;;;;;5031473;28;20148;-69
2020/12/29 04:04:57;;;;;;;0.73;0.40;;;4.10;99.90;;;;;;5030614;28;20064;-69
2020/12/29 04:07:23;;;;;;;1.17;0.50;;;4.00;99.90;;;;;;5030438;28;20033;-69
2020/12/29 04:09:48;;;;;;;0.85;0.52;;;4.00;99.90;;;;;;5031075;28;20030;-68
2020/12/29 04:12:14;;;;;;;0.52;0.50;;;4.00;99.90;;;;;;5031317;28;20033;-69
2020/12/29 04:14:40;;;;;;;0.73;0.55;;;3.90;99.90;;;;;;5030246;28;20395;-69
2020/12/29 04:17:05;;;;;;;0.77;0.50;;;3.90;99.90;;;;;;5036257;28;20021;-68
2020/12/29 04:19:31;;;;;;;1.52;0.40;;;3.90;99.90;;;;;;5054576;28;20037;-68
2020/12/29 04:21:57;;;;;;;0.65;0.47;;;3.90;99.90;;;;;;5033523;28;20037;-68
2020/12/29 04:24:22;;;;;;;0.70;0.30;;;4.00;99.90;;;;;;5030954;28;20022;-69
2020/12/29 04:26:48;;;;;;;2.25;0.50;;;4.00;99.90;;;;;;5031358;28;20037;-68
2020/12/29 04:29:13;;;;;;;0.93;0.50;;;4.10;99.90;;;;;;5034662;28;20026;-69
2020/12/29 04:31:39;;;;;;;1.40;0.45;;;4.10;99.90;;;;;;5034685;28;20025;-69
2020/12/29 04:34:05;;;;;;;2.33;0.50;;;4.20;99.90;;;;;;5034095;28;20067;-68
2020/12/29 04:36:30;;;;;;;1.42;0.40;;;4.20;99.90;;;;;;5033723;28;20103;-69
2020/12/29 04:38:56;;;;;;;1.60;0.52;;;4.20;99.90;;;;;;5034592;28;20104;-69
2020/12/29 04:41:22;;;;;;;1.55;0.52;;;4.30;99.90;;;;;;5034983;28;20411;-70
2020/12/29 04:43:49;;;;;;;3.20;0.80;;;4.30;99.90;;;;;;5032378;28;20445;-69
2020/12/29 04:46:15;;;;;;;0.93;0.40;;;4.30;99.90;;;;;;5034323;28;20502;-69
2020/12/29 04:48:40;;;;;;;0.88;0.35;;;4.10;99.90;;;;;;5033931;28;20034;-69
2020/12/29 04:51:08;;;;;;;2.58;0.70;;;4.20;99.90;;;;;;5033989;28;20022;-69
2020/12/29 04:53:35;;;;;;;1.58;0.40;;;4.10;99.90;;;;;;5033718;28;20503;-69
2020/12/29 04:56:07;;;;;;;2.50;0.60;;;4.20;99.90;;;;;;5034357;28;20643;-69
2020/12/29 04:58:34;;;;;;;2.00;0.60;;;4.00;99.90;;;;;;5034340;28;20033;-69
2020/12/29 05:01:08;;;;;;;0.95;0.40;;;4.10;99.90;;;;;;5034694;28;20395;-69
2020/12/29 05:03:44;;;;;;;1.80;0.45;;;4.10;99.90;;;;;;5034052;28;20403;-68
2020/12/29 05:06:10;;;;;;;2.00;0.40;;;4.00;99.90;;;;;;5033600;28;20036;-69
2020/12/29 05:08:36;;;;;;;0.60;0.40;;;4.00;99.90;;;;;;5034114;28;20030;-68
2020/12/29 05:11:01;;;;;;;0.30;0.30;;;3.90;99.90;;;;;;5033099;28;20120;-69
2020/12/29 05:13:27;;;;;;;0.40;0.40;;;4.00;99.90;;;;;;5033692;28;20024;-69
2020/12/29 05:15:53;;;;;;;1.02;0.32;;;3.90;99.90;;;;;;5032108;28;20108;-69
2020/12/29 05:18:19;;;;;;;1.00;0.32;;;3.90;99.90;;;;;;5032455;28;20088;-67
2020/12/29 05:20:48;;;;;;;0.35;0.28;;;4.00;99.90;;;;;;5033687;28;20026;-68
2020/12/29 05:23:15;;;;;;;0.35;0.35;;;4.00;99.90;;;;;;5033195;28;20530;-67
2020/12/29 05:25:46;;;;;;;0.77;0.50;;;3.90;99.90;;;;;;5033614;28;20022;-69
2020/12/29 05:28:11;;;;;;;2.15;0.30;;;3.90;99.90;;;;;;5033786;28;20075;-69
2020/12/29 05:30:38;;;;;;;0.47;0.30;;;3.90;99.90;;;;;;5032660;28;20025;-69
2020/12/29 05:33:13;;;;;;;1.90;0.40;;;4.00;99.90;;;;;;5033095;28;20091;-69
2020/12/29 05:35:41;;;;;;;0.43;0.43;;;3.90;99.90;;;;;;5038976;28;20026;-69
2020/12/29 05:38:07;;;;;;;0.60;0.60;;;4.00;99.90;;;;;;5039658;28;20029;-69
2020/12/29 05:40:34;;;;;;;1.58;0.40;;;4.00;99.90;;;;;;5044832;28;20033;-69
2020/12/29 05:43:01;;;;;;;0.55;0.30;;;3.90;99.90;;;;;;5053944;28;20068;-69
2020/12/29 05:45:34;;;;;;;3.28;0.40;;;3.90;99.90;;;;;;5051438;28;20486;-69
2020/12/29 05:48:01;;;;;;;0.65;0.40;;;3.90;99.90;;;;;;5052372;28;20025;-68
2020/12/29 05:50:28;;;;;;;1.58;0.38;;;3.90;99.90;;;;;;5052072;28;20036;-69
2020/12/29 05:53:02;;;;;;;1.83;0.60;;;3.90;99.90;;;;;;5051055;28;20021;-69
2020/12/29 05:55:27;;;;;;;1.55;0.50;;;3.90;99.90;;;;;;5063732;22;20448;-71
2020/12/29 05:58:11;;;;;;;3.28;0.60;;;3.90;99.90;;;;;;5065003;28;20028;-74
2020/12/29 06:00:40;;;;;;;1.02;0.50;;;3.90;99.90;;;;;;5073702;28;20021;-72
2020/12/29 06:03:08;;;;;;;2.67;0.40;;;3.80;99.90;;;;;;5073015;28;20394;-72
2020/12/29 06:05:35;;;;;;;1.02;0.40;;;3.80;99.90;;;;;;5056154;28;20075;-70
2020/12/29 06:08:03;;;;;;;1.67;0.50;;;3.70;99.90;;;;;;5053970;28;20021;-70
2020/12/29 06:10:32;;;;;;;5.20;0.75;;;3.80;99.90;;;;;;5053025;28;20127;-70
2020/12/29 06:12:59;;;;;;;1.88;0.80;;;3.80;99.90;;;;;;5052550;28;20113;-72
2020/12/29 06:15:34;;;;;;;5.07;0.50;;;3.70;99.90;;;;;;5052811;28;20025;-71
2020/12/29 06:18:05;;;;;;;2.45;0.43;;;3.70;99.90;;;;;;5053018;28;20028;-71
2020/12/29 06:20:45;;;;;;;2.67;0.60;;;3.80;99.90;;;;;;5051390;28;20025;-71
2020/12/29 06:23:13;;;;;;;2.58;0.80;;;3.80;99.90;;;;;;5052470;28;20059;-70
2020/12/29 06:25:41;;;;;;;1.55;0.50;;;3.80;99.90;;;;;;5052188;28;20036;-70
2020/12/29 06:28:06;;;;;;;5.50;0.50;;;3.80;99.90;;;;;;5053214;28;20028;-73
2020/12/29 06:30:34;;;;;;;5.22;0.82;;;3.80;99.90;;;;;;5052859;28;20021;-70
2020/12/29 06:33:01;;;;;;;3.88;0.60;;;3.80;99.90;;;;;;5051998;28;20033;-70
2020/12/29 06:35:27;;;;;;;1.35;0.63;;;3.70;99.90;;;;;;5052785;28;20519;-72
2020/12/29 06:38:07;;;;;;;4.68;0.73;;;3.80;99.90;;;;;;5052857;28;20032;-72
2020/12/29 06:40:33;;;;;;;2.78;0.57;;;3.70;99.90;;;;;;5052627;28;20024;-72
2020/12/29 06:42:59;;;;;;;2.72;0.40;;;3.70;99.90;;;;;;5051274;28;20506;-72
2020/12/29 06:45:33;;;;;;;3.60;0.70;;;3.80;99.90;;;;;;5052480;28;20031;-72
2020/12/29 06:47:58;;;;;;;4.40;0.70;;;3.80;99.90;;;;;;5052440;28;20028;-72
2020/12/29 06:50:31;;;;;;;1.10;0.57;;;3.80;99.90;;;;;;5051872;28;20025;-70
2020/12/29 06:53:02;;;;;;;0.88;0.50;;;3.70;99.90;;;;;;5051850;28;20032;-71
2020/12/29 06:55:35;;;;;;;3.65;0.90;;;3.80;99.90;;;;;;5052117;28;20132;-71
2020/12/29 06:58:01;;;;;;;3.42;0.93;;;3.80;99.90;;;;;;5051707;28;20021;-71
2020/12/29 07:00:27;;;;;;;3.30;0.88;;;3.90;99.90;;;;;;5052730;28;20090;-73
2020/12/29 07:02:54;;;;;;;1.45;0.60;;;3.80;99.90;;;;;;5043090;28;20024;-73
2020/12/29 07:05:21;;;;;;;1.98;0.60;;;3.80;99.90;;;;;;5051702;28;20032;-74
2020/12/29 07:07:57;;;;;;;3.30;1.23;;;3.90;99.90;;;;;;5051588;28;20021;-72
2020/12/29 07:10:41;;;;;;;3.38;0.70;;;3.90;99.90;;;;;;5051694;28;20023;-72
2020/12/29 07:13:10;;;;;;;3.10;1.02;;;3.90;99.90;;;;;;5051285;28;20047;-73
2020/12/29 07:15:50;;;;;;;1.05;0.80;;;4.00;99.90;;;;;;5052485;28;20029;-74
2020/12/29 07:18:24;;;;;;;3.15;0.82;;;4.00;99.90;;;;;;5059165;28;20032;-72
2020/12/29 07:20:52;;;;;;;1.42;0.57;;;4.00;99.90;;;;;;5066499;28;20103;-74
2020/12/29 07:23:19;;;;;;;1.80;0.80;;;4.00;99.90;;;;;;5052582;28;20033;-72
2020/12/29 07:25:50;;;;;;;1.63;0.65;;;4.10;99.90;;;;;;5051588;28;20032;-74
2020/12/29 07:28:19;;;;;;;1.13;0.70;;;4.00;99.90;;;;;;5043079;28;20052;-73
2020/12/29 07:30:44;;;;;;;2.45;1.02;;;4.10;99.90;;;;;;5041583;28;20124;-74
2020/12/29 07:33:10;;;;;;;6.80;0.70;;;4.00;99.90;;;;;;5037282;28;20448;-74
2020/12/29 07:35:38;;;;;;;1.77;0.70;;;4.10;99.90;;;;;;5044961;28;20049;-72
2020/12/29 07:38:09;;;;;;;4.38;0.80;;;4.10;99.90;;;;;;5043900;28;20089;-74
2020/12/29 07:40:36;;;;;;;2.43;0.97;;;4.20;99.90;;;;;;5046794;28;20028;-73
2020/12/29 07:43:04;;;;;;;4.38;0.80;;;4.10;99.90;;;;;;5044351;28;20060;-75
2020/12/29 07:45:29;;;;;;;3.17;0.95;;;4.10;99.90;;;;;;5046737;28;20025;-73
2020/12/29 07:47:59;;;;;;;3.75;0.80;;;4.10;99.90;;;;;;5046100;28;20010;-75
2020/12/29 07:50:24;;;;;;;3.38;0.80;;;4.10;99.90;;;;;;5046689;28;20081;-74
2020/12/29 07:52:58;;;;;;;2.30;1.00;;;4.10;99.90;;;;;;5042755;28;20103;-72
2020/12/29 07:55:24;;;;;;;2.60;0.90;;;4.10;99.90;;;;;;5036055;28;20119;-70
2020/12/29 07:57:50;;;;;;;1.00;0.85;;;4.10;99.90;;;;;;5053827;28;20029;-71
2020/12/29 08:00:17;;;;;;;2.30;0.90;;;4.10;99.90;;;;;;5055555;28;20064;-69
2020/12/29 08:02:53;;;;;;;1.75;0.65;;;4.60;99.90;;;;;;5056175;28;20108;-69
2020/12/29 08:05:27;;;;;;;1.52;0.90;;;5.00;99.90;;;;;;5052501;28;20044;-70
2020/12/29 08:07:53;;;;;;;4.75;1.10;;;5.30;99.90;;;;;;5054931;28;20621;-71
2020/12/29 08:10:24;;;;;;;3.00;1.00;;;5.80;99.90;;;;;;5036289;28;20058;-74
2020/12/29 08:13:09;;;;;;;2.53;0.77;;;5.50;99.90;;;;;;5050318;28;20018;-76
2020/12/29 08:15:43;;;;;;;1.48;0.70;;;5.00;99.90;;;;;;5034691;28;20025;-71
2020/12/29 08:18:19;;;;;;;5.28;3.70;;;5.00;99.90;;;;;;5048023;28;20144;-70
2020/12/29 08:20:57;;;;;;;5.47;3.92;;;4.90;99.90;;;;;;5054873;28;20029;-73
2020/12/29 08:23:29;;;;;;;1.40;0.68;;;4.90;99.90;;;;;;5056539;28;20021;-73
2020/12/29 08:26:01;;;;;;;1.95;0.82;;;4.90;99.90;;;;;;5056241;28;20409;-71
2020/12/29 08:28:29;;;;;;;3.60;2.97;;;4.80;99.90;;;;;;5056968;28;20383;-71
2020/12/29 08:30:56;;;;;;;1.33;0.55;;;4.80;99.90;;;;;;5056218;28;20021;-74
2020/12/29 08:33:23;;;;;;;0.85;0.60;;;4.80;99.90;;;;;;5054634;28;20020;-72
2020/12/29 08:35:51;;;;;;;1.52;0.77;;;4.70;99.90;;;;;;5055659;28;20033;-73
2020/12/29 08:38:35;;;;;;;0.75;0.60;;;4.60;99.90;;;;;;5056919;28;20064;-72
2020/12/29 08:41:12;;;;;;;12.05;7.15;;;4.60;99.90;;;;;;5056302;28;20435;-72
2020/12/29 08:43:42;;;;;;;0.80;0.50;;;4.70;99.90;;;;;;5055214;28;20503;-75
2020/12/29 08:46:09;;;;;;;3.05;1.15;;;4.60;99.90;;;;;;5055326;28;20467;-72
2020/12/29 08:48:36;;;;;;;1.73;0.85;;;4.70;99.90;;;;;;5055227;28;20029;-73
2020/12/29 08:51:19;;;;;;;1.63;0.90;;;4.70;99.90;;;;;;5054327;28;20538;-74
2020/12/29 08:53:45;;;;;;;9.68;8.27;;;4.80;99.90;;;;;;5033770;28;20021;-73
2020/12/29 08:56:21;;;;;;;2.75;2.10;;;4.90;99.90;;;;;;5037965;28;20037;-69
2020/12/29 08:58:48;;;;;;;0.85;0.60;;;5.00;99.90;;;;;;5054839;28;20025;-73
2020/12/29 09:01:31;;;;;;;1.23;0.85;;;4.90;99.90;;;;;;5054666;28;20032;-72
2020/12/29 09:03:57;;;;;;;1.20;0.43;;;4.90;99.90;;;;;;5054661;28;20025;-72
2020/12/29 09:06:23;;;;;;;2.45;0.90;;;5.00;99.90;;;;;;5055876;28;20035;-73
2020/12/29 09:08:49;;;;;;;1.20;0.88;;;5.00;99.90;;;;;;5067309;28;20021;-70
2020/12/29 09:11:15;;;;;;;2.92;0.60;;;5.10;99.90;;;;;;5076574;28;20012;-70
2020/12/29 09:14:04;;;;;;;1.50;0.60;;;5.10;99.90;;;;;;5077119;28;20020;-71
2020/12/29 09:16:30;;;;;;;1.25;0.47;;;5.00;99.90;;;;;;5055814;28;20115;-69
2020/12/29 09:18:56;;;;;;;1.38;0.70;;;5.00;99.90;;;;;;5054368;28;20125;-73
2020/12/29 09:21:23;;;;;;;2.60;0.98;;;4.90;99.90;;;;;;5054230;28;20025;-72
2020/12/29 09:23:59;;;;;;;4.65;0.50;;;5.00;99.90;;;;;;5053162;28;20035;-68
2020/12/29 09:26:24;;;;;;;1.48;0.82;;;4.90;99.90;;;;;;5052345;28;20035;-72
2020/12/29 09:28:50;;;;;;;2.65;0.60;;;4.80;99.90;;;;;;5055103;28;20029;-71
2020/12/29 09:31:22;;;;;;;2.17;0.82;;;4.70;99.90;;;;;;5053945;28;20028;-70
2020/12/29 09:33:47;;;;;;;5.55;0.85;;;4.40;99.90;;;;;;5053901;28;20060;-70
2020/12/29 09:36:24;;;;;;;0.95;0.60;;;4.20;99.90;;;;;;5054206;28;20055;-70
2020/12/29 09:38:51;;;;;;;2.80;0.90;;;4.20;99.90;;;;;;5033555;28;20040;-69
2020/12/29 09:41:18;;;;;;;1.42;0.95;;;4.20;99.90;;;;;;5034110;28;20031;-69
2020/12/29 09:43:48;;;;;;;0.82;0.73;;;4.20;99.90;;;;;;5031924;28;20072;-70
2020/12/29 09:46:14;;;;;;;1.48;1.30;;;4.10;99.90;;;;;;5033796;28;20490;-71
2020/12/29 09:48:41;;;;;;;1.85;0.60;;;4.20;99.90;;;;;;5035129;28;20029;-71
2020/12/29 09:51:09;;;;;;;2.22;0.80;;;4.20;99.90;;;;;;5033351;28;20067;-71
2020/12/29 09:53:35;;;;;;;0.73;0.40;;;4.30;99.90;;;;;;5032399;28;20044;-71
2020/12/29 09:56:01;;;;;;;2.38;0.60;;;4.30;99.90;;;;;;5035717;28;20511;-70
2020/12/29 09:58:26;;;;;;;1.15;0.95;;;4.40;99.90;;;;;;5053561;28;20021;-71
2020/12/29 10:00:52;;;;;;;1.25;0.60;;;4.40;99.90;;;;;;5053050;28;20368;-71
2020/12/29 10:03:18;;;;;;;1.13;0.68;;;4.60;99.90;;;;;;5052578;28;20055;-71
2020/12/29 10:05:44;;;;;;;1.08;0.60;;;4.70;99.90;;;;;;5051692;28;20040;-70
2020/12/29 10:08:13;;;;;;;0.50;0.40;;;4.80;99.90;;;;;;5052843;28;20086;-71
2020/12/29 10:10:39;;;;;;;0.85;0.50;;;5.10;99.90;;;;;;5051743;28;20025;-72
2020/12/29 10:13:04;;;;;;;0.57;0.47;;;5.20;99.90;;;;;;5052930;28;20039;-72
2020/12/29 10:15:30;;;;;;;0.52;0.50;;;5.20;99.90;;;;;;5052599;28;20110;-73
2020/12/29 10:17:56;;;;;;;1.17;0.65;;;5.50;99.90;;;;;;5053073;28;20056;-73
2020/12/29 10:20:22;;;;;;;0.90;0.60;;;5.80;99.90;;;;;;5052528;28;20060;-72
2020/12/29 10:22:48;;;;;;;1.75;0.57;;;6.10;99.90;;;;;;5052227;28;20071;-73
2020/12/29 10:25:17;;;;;;;0.50;0.45;;;6.20;99.90;;;;;;5051442;28;20029;-72
2020/12/29 10:27:46;;;;;;;0.47;0.40;;;6.30;99.90;;;;;;5052560;28;20021;-74
2020/12/29 10:30:12;;;;;;;0.80;0.30;;;6.20;99.90;;;;;;5051868;28;20021;-73
2020/12/29 10:32:38;;;;;;;0.63;0.52;;;6.20;99.90;;;;;;5051756;28;20179;-73
2020/12/29 10:35:04;;;;;;;0.45;0.45;;;6.30;99.90;;;;;;5052806;28;20059;-73
2020/12/29 10:37:30;;;;;;;0.22;0.22;;;6.30;99.90;;;;;;5052998;28;20021;-73
2020/12/29 10:39:56;;;;;;;0.40;0.40;;;6.00;99.90;;;;;;5053067;28;20032;-73
2020/12/29 10:42:21;;;;;;;0.93;0.30;;;6.50;99.90;;;;;;5053474;28;20103;-74
2020/12/29 10:44:47;;;;;;;0.20;0.20;;;7.00;99.90;;;;;;5052514;28;20104;-74
2020/12/29 10:47:13;;;;;;;0.30;0.30;;;7.90;99.90;;;;;;5052462;28;20036;-74
2020/12/29 10:49:38;;;;;;;0.20;0.20;;;8.20;99.90;;;;;;5052639;28;20032;-72
2020/12/29 10:52:04;;;;;;;0.73;0.20;;;8.20;99.90;;;;;;5052276;28;20601;-73
2020/12/29 10:54:29;;;;;;;0.30;0.20;;;8.80;99.90;;;;;;5051588;28;20029;-71
2020/12/29 10:56:55;;;;;;;0.40;0.40;;;9.90;99.90;;;;;;5052003;28;20025;-72
2020/12/29 10:59:21;;;;;;;0.30;0.30;;;9.90;99.90;;;;;;5051857;28;20369;-74
2020/12/29 11:01:46;;;;;;;0.40;0.30;;;9.50;99.90;;;;;;5052001;28;20090;-73
2020/12/29 11:04:12;;;;;;;0.30;0.30;;;9.10;99.90;;;;;;5050956;28;20029;-74
2020/12/29 11:06:38;;;;;;;0.40;0.25;;;8.20;99.90;;;;;;5050927;28;20043;-71
2020/12/29 11:09:04;;;;;;;1.33;0.38;;;7.50;99.90;;;;;;5052008;28;20058;-72
2020/12/29 11:11:30;;;;;;;0.20;0.20;;;7.10;99.90;;;;;;5052025;28;20028;-73
2020/12/29 11:13:55;;;;;;;0.80;0.20;;;6.50;99.90;;;;;;5051636;28;20632;-72
2020/12/29 11:16:21;;;;;;;0.50;0.40;;;6.30;99.90;;;;;;5051073;28;20040;-71
2020/12/29 11:18:48;;;;;;;0.30;0.30;;;6.10;99.90;;;;;;5059946;28;20532;-71
2020/12/29 11:21:16;;;;;;;0.50;0.50;;;6.10;99.90;;;;;;5062409;28;20428;-71
2020/12/29 11:23:42;;;;;;;1.55;0.40;;;5.90;99.90;;;;;;5042694;28;20033;-74
2020/12/29 11:26:08;;;;;;;0.82;0.52;;;5.70;99.90;;;;;;5043414;28;20025;-73
2020/12/29 11:28:34;;;;;;;0.45;0.45;;;5.70;99.90;;;;;;5034703;28;20411;-74
2020/12/29 11:31:00;;;;;;;0.30;0.30;;;5.60;99.90;;;;;;5031648;28;20057;-74
2020/12/29 11:33:25;;;;;;;0.98;0.70;;;5.70;99.90;;;;;;5031372;28;20045;-73
2020/12/29 11:35:51;;;;;;;1.85;0.90;;;5.70;99.90;;;;;;5031438;28;20051;-76
2020/12/29 11:38:18;;;;;;;0.45;0.45;;;5.40;99.90;;;;;;5045017;28;20075;-73
2020/12/29 11:40:44;;;;;;;1.33;0.70;;;5.20;99.90;;;;;;5051886;28;20092;-75
2020/12/29 11:43:10;;;;;;;1.00;0.75;;;5.30;99.90;;;;;;5051887;28;20120;-75
2020/12/29 11:45:36;;;;;;;1.00;0.60;;;5.50;99.90;;;;;;5051390;28;20100;-75
2020/12/29 11:48:02;;;;;;;0.93;0.50;;;6.20;99.90;;;;;;5052168;28;20049;-75
2020/12/29 11:50:28;;;;;;;0.70;0.50;;;6.80;99.90;;;;;;5052316;28;20214;-75
2020/12/29 11:52:54;;;;;;;0.73;0.60;;;7.30;99.90;;;;;;5051238;28;20075;-74
2020/12/29 11:55:20;;;;;;;1.42;0.52;;;7.30;99.90;;;;;;5052456;28;20037;-73
2020/12/29 11:57:46;;;;;;;0.40;0.40;;;7.40;99.90;;;;;;5072467;22;20033;-70
2020/12/29 12:00:11;;;;;;;0.60;0.50;;;7.30;99.90;;;;;;5062661;28;20025;-68
2020/12/29 12:02:37;;;;;;;0.57;0.52;;;7.10;99.90;;;;;;5078032;28;20033;-67
2020/12/29 12:05:03;;;;;;;0.57;0.57;;;6.70;99.90;;;;;;5052955;28;20051;-69
2020/12/29 12:07:29;;;;;;;1.13;0.75;;;6.70;99.90;;;;;;5052721;28;20044;-67
2020/12/29 12:09:54;;;;;;;2.20;1.00;;;6.90;99.90;;;;;;5050478;28;20040;-68
2020/12/29 12:12:20;;;;;;;1.10;0.80;;;6.90;99.90;;;;;;5049806;28;20032;-68
2020/12/29 12:14:46;;;;;;;0.98;0.95;;;6.70;99.90;;;;;;5050105;28;20096;-68
2020/12/29 12:17:11;;;;;;;0.73;0.70;;;6.70;99.90;;;;;;5050917;28;20021;-66
2020/12/29 12:19:37;;;;;;;3.15;1.30;;;6.60;99.90;;;;;;5049998;28;20025;-68
2020/12/29 12:22:03;;;;;;;2.15;1.20;;;6.40;99.90;;;;;;5050135;28;20045;-67
2020/12/29 12:24:28;;;;;;;2.97;1.58;;;6.20;99.90;;;;;;5041826;28;20497;-68
2020/12/29 12:26:54;;;;;;;2.33;1.27;;;6.10;99.90;;;;;;5031075;28;20032;-68
2020/12/29 12:29:20;;;;;;;1.67;1.10;;;6.10;99.90;;;;;;5030568;28;20025;-67
2020/12/29 12:31:46;;;;;;;2.53;1.10;;;6.00;99.90;;;;;;5031042;28;20022;-68
2020/12/29 12:34:11;;;;;;;2.53;1.73;;;6.00;99.90;;;;;;5030313;28;20025;-69
2020/12/29 12:36:38;;;;;;;1.38;1.08;;;6.10;99.90;;;;;;5032994;28;20594;-68
2020/12/29 12:39:04;;;;;;;1.70;1.15;;;6.40;99.90;;;;;;5049877;28;20106;-65
2020/12/29 12:41:29;;;;;;;1.38;0.90;;;6.70;99.90;;;;;;5050766;28;20459;-69
2020/12/29 12:43:55;;;;;;;2.25;1.20;;;7.10;99.90;;;;;;5050112;28;20033;-69
2020/12/29 12:46:21;;;;;;;1.02;0.95;;;7.20;99.90;;;;;;5051431;28;20082;-69
2020/12/29 12:48:47;;;;;;;2.03;1.67;;;7.50;99.90;;;;;;5056819;28;20113;-69
2020/12/29 12:51:13;;;;;;;1.30;1.30;;;7.50;99.90;;;;;;5054156;28;20032;-70
2020/12/29 12:53:41;;;;;;;2.00;1.27;;;7.60;99.90;;;;;;5067731;28;20025;-69
2020/12/29 12:56:12;;;;;;;1.85;1.42;;;7.60;99.90;;;;;;5068884;28;20510;-68
2020/12/29 12:58:37;;;;;;;1.40;1.30;;;7.60;99.90;;;;;;5074184;28;20036;-69